sensor_id;sensor_type;location;lat;lon;timestamp;P1;durP1;ratioP1;P2;durP2;ratioP2
21979;SDS011;11154;48.558;9.234;2022-11-24T00:01:31;8.05;;;1.85;;
21979;SDS011;11154;48.558;9.234;2022-11-24T00:03:32;7.30;;;1.90;;
21979;SDS011;11154;48.558;9.234;2022-11-24T00:05:34;8.32;;;1.88;;
21979;SDS011;11154;48.558;9.234;2022-11-24T00:07:39;6.78;;;1.67;;
21979;SDS011;11154;48.558;9.234;2022-11-24T00:09:41;7.28;;;2.22;;
21979;SDS011;11154;48.558;9.234;2022-11-24T00:11:42;5.85;;;1.50;;
21979;SDS011;11154;48.558;9.234;2022-11-24T00:13:44;8.38;;;1.90;;
21979;SDS011;11154;48.558;9.234;2022-11-24T00:15:46;8.13;;;1.80;;
21979;SDS011;11154;48.558;9.234;2022-11-24T00:17:48;6.53;;;1.77;;
21979;SDS011;11154;48.558;9.234;2022-11-24T00:19:49;4.85;;;1.55;;
21979;SDS011;11154;48.558;9.234;2022-11-24T00:21:51;7.65;;;1.48;;
21979;SDS011;11154;48.558;9.234;2022-11-24T00:23:54;5.40;;;1.80;;
21979;SDS011;11154;48.558;9.234;2022-11-24T00:26:01;11.05;;;1.90;;
21979;SDS011;11154;48.558;9.234;2022-11-24T00:28:04;6.40;;;1.80;;
21979;SDS011;11154;48.558;9.234;2022-11-24T00:30:06;9.65;;;2.20;;
21979;SDS011;11154;48.558;9.234;2022-11-24T00:32:09;5.85;;;2.10;;
21979;SDS011;11154;48.558;9.234;2022-11-24T00:34:12;5.22;;;1.65;;
21979;SDS011;11154;48.558;9.234;2022-11-24T00:36:14;4.28;;;1.50;;
21979;SDS011;11154;48.558;9.234;2022-11-24T00:38:18;4.90;;;1.50;;
21979;SDS011;11154;48.558;9.234;2022-11-24T00:40:21;8.43;;;1.77;;
21979;SDS011;11154;48.558;9.234;2022-11-24T00:42:23;7.72;;;1.67;;
21979;SDS011;11154;48.558;9.234;2022-11-24T00:44:25;6.35;;;1.67;;
21979;SDS011;11154;48.558;9.234;2022-11-24T00:46:27;5.72;;;1.88;;
21979;SDS011;11154;48.558;9.234;2022-11-24T00:48:29;5.68;;;1.73;;
21979;SDS011;11154;48.558;9.234;2022-11-24T00:50:31;5.35;;;1.50;;
21979;SDS011;11154;48.558;9.234;2022-11-24T00:52:33;5.28;;;1.38;;
21979;SDS011;11154;48.558;9.234;2022-11-24T00:54:34;4.07;;;1.60;;
21979;SDS011;11154;48.558;9.234;2022-11-24T00:56:37;7.90;;;1.80;;
21979;SDS011;11154;48.558;9.234;2022-11-24T00:58:39;5.65;;;1.20;;
21979;SDS011;11154;48.558;9.234;2022-11-24T01:00:41;5.78;;;1.60;;
21979;SDS011;11154;48.558;9.234;2022-11-24T01:02:42;5.18;;;1.40;;
21979;SDS011;11154;48.558;9.234;2022-11-24T01:04:44;5.53;;;1.70;;
21979;SDS011;11154;48.558;9.234;2022-11-24T01:06:46;8.70;;;1.70;;
21979;SDS011;11154;48.558;9.234;2022-11-24T01:08:47;2.55;;;1.27;;
21979;SDS011;11154;48.558;9.234;2022-11-24T01:10:49;4.00;;;1.17;;
21979;SDS011;11154;48.558;9.234;2022-11-24T01:12:52;7.63;;;1.65;;
21979;SDS011;11154;48.558;9.234;2022-11-24T01:14:53;5.60;;;1.70;;
21979;SDS011;11154;48.558;9.234;2022-11-24T01:16:55;4.95;;;1.20;;
21979;SDS011;11154;48.558;9.234;2022-11-24T01:18:57;3.83;;;1.30;;
21979;SDS011;11154;48.558;9.234;2022-11-24T01:21:02;7.40;;;1.63;;
21979;SDS011;11154;48.558;9.234;2022-11-24T01:23:05;5.57;;;1.02;;
21979;SDS011;11154;48.558;9.234;2022-11-24T01:25:07;3.47;;;1.05;;
21979;SDS011;11154;48.558;9.234;2022-11-24T01:27:10;3.97;;;1.30;;
21979;SDS011;11154;48.558;9.234;2022-11-24T01:29:13;4.90;;;1.45;;
21979;SDS011;11154;48.558;9.234;2022-11-24T01:31:15;7.65;;;3.47;;
21979;SDS011;11154;48.558;9.234;2022-11-24T01:33:16;5.82;;;2.38;;
21979;SDS011;11154;48.558;9.234;2022-11-24T01:35:18;3.55;;;1.40;;
21979;SDS011;11154;48.558;9.234;2022-11-24T01:37:19;3.13;;;1.17;;
21979;SDS011;11154;48.558;9.234;2022-11-24T01:39:21;4.65;;;1.52;;
21979;SDS011;11154;48.558;9.234;2022-11-24T01:41:23;5.72;;;1.50;;
21979;SDS011;11154;48.558;9.234;2022-11-24T01:43:25;4.22;;;1.60;;
21979;SDS011;11154;48.558;9.234;2022-11-24T01:45:30;4.32;;;1.65;;
21979;SDS011;11154;48.558;9.234;2022-11-24T01:47:35;5.30;;;1.65;;
21979;SDS011;11154;48.558;9.234;2022-11-24T01:49:42;6.30;;;1.67;;
21979;SDS011;11154;48.558;9.234;2022-11-24T01:51:47;4.38;;;1.23;;
21979;SDS011;11154;48.558;9.234;2022-11-24T01:53:55;5.50;;;1.83;;
21979;SDS011;11154;48.558;9.234;2022-11-24T01:55:59;3.63;;;1.38;;
21979;SDS011;11154;48.558;9.234;2022-11-24T01:58:01;3.22;;;1.23;;
21979;SDS011;11154;48.558;9.234;2022-11-24T02:00:06;5.13;;;1.55;;
21979;SDS011;11154;48.558;9.234;2022-11-24T02:02:11;1.98;;;1.00;;
21979;SDS011;11154;48.558;9.234;2022-11-24T02:04:14;3.13;;;1.20;;
21979;SDS011;11154;48.558;9.234;2022-11-24T02:06:24;2.88;;;1.13;;
21979;SDS011;11154;48.558;9.234;2022-11-24T02:08:29;2.65;;;1.48;;
21979;SDS011;11154;48.558;9.234;2022-11-24T02:10:39;2.20;;;1.05;;
21979;SDS011;11154;48.558;9.234;2022-11-24T02:12:42;3.28;;;1.20;;
21979;SDS011;11154;48.558;9.234;2022-11-24T02:14:46;3.10;;;1.08;;
21979;SDS011;11154;48.558;9.234;2022-11-24T02:16:49;2.65;;;1.33;;
21979;SDS011;11154;48.558;9.234;2022-11-24T02:18:53;2.88;;;1.00;;
21979;SDS011;11154;48.558;9.234;2022-11-24T02:20:55;2.63;;;1.20;;
21979;SDS011;11154;48.558;9.234;2022-11-24T02:22:58;1.75;;;0.98;;
21979;SDS011;11154;48.558;9.234;2022-11-24T02:25:06;2.20;;;0.95;;
21979;SDS011;11154;48.558;9.234;2022-11-24T02:27:18;3.17;;;1.08;;
21979;SDS011;11154;48.558;9.234;2022-11-24T02:29:20;3.50;;;1.63;;
21979;SDS011;11154;48.558;9.234;2022-11-24T02:31:21;2.00;;;1.10;;
21979;SDS011;11154;48.558;9.234;2022-11-24T02:33:23;4.10;;;1.40;;
21979;SDS011;11154;48.558;9.234;2022-11-24T02:35:25;3.33;;;1.20;;
21979;SDS011;11154;48.558;9.234;2022-11-24T02:37:27;2.08;;;0.98;;
21979;SDS011;11154;48.558;9.234;2022-11-24T02:39:29;2.35;;;1.10;;
21979;SDS011;11154;48.558;9.234;2022-11-24T02:41:30;4.55;;;1.10;;
21979;SDS011;11154;48.558;9.234;2022-11-24T02:43:34;3.63;;;1.42;;
21979;SDS011;11154;48.558;9.234;2022-11-24T02:45:39;3.50;;;1.00;;
21979;SDS011;11154;48.558;9.234;2022-11-24T02:47:41;3.95;;;1.42;;
21979;SDS011;11154;48.558;9.234;2022-11-24T02:49:45;3.03;;;1.33;;
21979;SDS011;11154;48.558;9.234;2022-11-24T02:51:46;1.73;;;0.73;;
21979;SDS011;11154;48.558;9.234;2022-11-24T02:53:48;2.67;;;1.20;;
21979;SDS011;11154;48.558;9.234;2022-11-24T02:55:49;2.55;;;1.27;;
21979;SDS011;11154;48.558;9.234;2022-11-24T02:57:52;2.83;;;1.10;;
21979;SDS011;11154;48.558;9.234;2022-11-24T02:59:55;3.25;;;1.10;;
21979;SDS011;11154;48.558;9.234;2022-11-24T03:01:56;2.97;;;1.05;;
21979;SDS011;11154;48.558;9.234;2022-11-24T03:03:58;3.85;;;1.20;;
21979;SDS011;11154;48.558;9.234;2022-11-24T03:05:59;2.70;;;1.20;;
21979;SDS011;11154;48.558;9.234;2022-11-24T03:08:01;3.60;;;1.40;;
21979;SDS011;11154;48.558;9.234;2022-11-24T03:10:04;2.00;;;1.10;;
21979;SDS011;11154;48.558;9.234;2022-11-24T03:12:06;4.88;;;2.78;;
21979;SDS011;11154;48.558;9.234;2022-11-24T03:14:08;4.53;;;3.53;;
21979;SDS011;11154;48.558;9.234;2022-11-24T03:16:11;2.67;;;1.60;;
21979;SDS011;11154;48.558;9.234;2022-11-24T03:18:13;3.95;;;1.65;;
21979;SDS011;11154;48.558;9.234;2022-11-24T03:20:15;5.00;;;1.95;;
21979;SDS011;11154;48.558;9.234;2022-11-24T03:22:17;4.22;;;1.73;;
21979;SDS011;11154;48.558;9.234;2022-11-24T03:24:19;2.60;;;1.40;;
21979;SDS011;11154;48.558;9.234;2022-11-24T03:26:21;3.03;;;1.50;;
21979;SDS011;11154;48.558;9.234;2022-11-24T03:28:24;3.65;;;1.30;;
21979;SDS011;11154;48.558;9.234;2022-11-24T03:30:26;2.15;;;1.10;;
21979;SDS011;11154;48.558;9.234;2022-11-24T03:32:29;3.25;;;1.10;;
21979;SDS011;11154;48.558;9.234;2022-11-24T03:34:30;2.00;;;1.20;;
21979;SDS011;11154;48.558;9.234;2022-11-24T03:36:32;3.60;;;1.35;;
21979;SDS011;11154;48.558;9.234;2022-11-24T03:38:33;3.70;;;1.45;;
21979;SDS011;11154;48.558;9.234;2022-11-24T03:40:35;2.65;;;1.35;;
21979;SDS011;11154;48.558;9.234;2022-11-24T03:42:37;2.35;;;1.38;;
21979;SDS011;11154;48.558;9.234;2022-11-24T03:44:39;2.42;;;1.20;;
21979;SDS011;11154;48.558;9.234;2022-11-24T03:46:41;2.88;;;1.13;;
21979;SDS011;11154;48.558;9.234;2022-11-24T03:48:45;3.22;;;1.40;;
21979;SDS011;11154;48.558;9.234;2022-11-24T03:50:51;2.80;;;1.20;;
21979;SDS011;11154;48.558;9.234;2022-11-24T03:52:53;1.65;;;1.05;;
21979;SDS011;11154;48.558;9.234;2022-11-24T03:54:54;2.42;;;1.30;;
21979;SDS011;11154;48.558;9.234;2022-11-24T03:56:56;2.00;;;1.10;;
21979;SDS011;11154;48.558;9.234;2022-11-24T03:58:58;3.17;;;1.35;;
21979;SDS011;11154;48.558;9.234;2022-11-24T04:00:59;3.42;;;1.00;;
21979;SDS011;11154;48.558;9.234;2022-11-24T04:03:01;3.67;;;1.20;;
21979;SDS011;11154;48.558;9.234;2022-11-24T04:05:04;3.38;;;1.08;;
21979;SDS011;11154;48.558;9.234;2022-11-24T04:07:06;5.88;;;1.75;;
21979;SDS011;11154;48.558;9.234;2022-11-24T04:09:08;5.03;;;1.58;;
21979;SDS011;11154;48.558;9.234;2022-11-24T04:11:10;2.55;;;1.27;;
21979;SDS011;11154;48.558;9.234;2022-11-24T04:13:31;3.45;;;0.98;;
21979;SDS011;11154;48.558;9.234;2022-11-24T04:15:32;7.18;;;1.45;;
21979;SDS011;11154;48.558;9.234;2022-11-24T04:17:33;4.13;;;0.70;;
21979;SDS011;11154;48.558;9.234;2022-11-24T04:19:35;6.10;;;1.30;;
21979;SDS011;11154;48.558;9.234;2022-11-24T04:21:38;4.95;;;1.15;;
21979;SDS011;11154;48.558;9.234;2022-11-24T04:23:41;3.53;;;1.17;;
21979;SDS011;11154;48.558;9.234;2022-11-24T04:25:42;4.60;;;1.30;;
21979;SDS011;11154;48.558;9.234;2022-11-24T04:27:44;2.78;;;0.93;;
21979;SDS011;11154;48.558;9.234;2022-11-24T04:29:50;4.97;;;1.95;;
21979;SDS011;11154;48.558;9.234;2022-11-24T04:31:51;6.72;;;1.88;;
21979;SDS011;11154;48.558;9.234;2022-11-24T04:33:53;3.80;;;1.35;;
21979;SDS011;11154;48.558;9.234;2022-11-24T04:35:55;1.00;;;0.77;;
21979;SDS011;11154;48.558;9.234;2022-11-24T04:37:57;3.63;;;1.20;;
21979;SDS011;11154;48.558;9.234;2022-11-24T04:40:02;4.05;;;1.85;;
21979;SDS011;11154;48.558;9.234;2022-11-24T04:42:05;4.32;;;1.67;;
21979;SDS011;11154;48.558;9.234;2022-11-24T04:44:06;7.13;;;3.38;;
21979;SDS011;11154;48.558;9.234;2022-11-24T04:46:09;8.63;;;3.25;;
21979;SDS011;11154;48.558;9.234;2022-11-24T04:48:11;3.25;;;1.50;;
21979;SDS011;11154;48.558;9.234;2022-11-24T04:50:13;3.10;;;1.60;;
21979;SDS011;11154;48.558;9.234;2022-11-24T04:52:15;2.65;;;1.50;;
21979;SDS011;11154;48.558;9.234;2022-11-24T04:54:20;3.85;;;1.35;;
21979;SDS011;11154;48.558;9.234;2022-11-24T04:56:22;6.13;;;1.50;;
21979;SDS011;11154;48.558;9.234;2022-11-24T04:58:24;4.38;;;1.50;;
21979;SDS011;11154;48.558;9.234;2022-11-24T05:00:26;6.22;;;1.55;;
21979;SDS011;11154;48.558;9.234;2022-11-24T05:02:27;5.43;;;1.40;;
21979;SDS011;11154;48.558;9.234;2022-11-24T05:04:29;2.75;;;1.20;;
21979;SDS011;11154;48.558;9.234;2022-11-24T05:06:30;2.70;;;1.27;;
21979;SDS011;11154;48.558;9.234;2022-11-24T05:08:32;4.40;;;1.25;;
21979;SDS011;11154;48.558;9.234;2022-11-24T05:10:36;2.22;;;1.00;;
21979;SDS011;11154;48.558;9.234;2022-11-24T05:12:36;3.03;;;1.23;;
21979;SDS011;11154;48.558;9.234;2022-11-24T05:14:38;6.65;;;1.30;;
21979;SDS011;11154;48.558;9.234;2022-11-24T05:16:40;3.92;;;1.38;;
21979;SDS011;11154;48.558;9.234;2022-11-24T05:18:41;4.55;;;1.00;;
21979;SDS011;11154;48.558;9.234;2022-11-24T05:20:43;4.25;;;1.45;;
21979;SDS011;11154;48.558;9.234;2022-11-24T05:22:44;5.78;;;1.35;;
21979;SDS011;11154;48.558;9.234;2022-11-24T05:24:46;4.72;;;1.50;;
21979;SDS011;11154;48.558;9.234;2022-11-24T05:26:49;9.90;;;1.65;;
21979;SDS011;11154;48.558;9.234;2022-11-24T05:28:51;4.47;;;1.42;;
21979;SDS011;11154;48.558;9.234;2022-11-24T05:30:52;6.32;;;1.48;;
21979;SDS011;11154;48.558;9.234;2022-11-24T05:32:54;7.75;;;1.60;;
21979;SDS011;11154;48.558;9.234;2022-11-24T05:34:56;9.63;;;1.67;;
21979;SDS011;11154;48.558;9.234;2022-11-24T05:36:59;11.02;;;2.00;;
21979;SDS011;11154;48.558;9.234;2022-11-24T05:39:02;5.45;;;2.70;;
21979;SDS011;11154;48.558;9.234;2022-11-24T05:41:04;6.07;;;1.60;;
21979;SDS011;11154;48.558;9.234;2022-11-24T05:43:10;9.00;;;1.90;;
21979;SDS011;11154;48.558;9.234;2022-11-24T05:45:13;10.02;;;2.15;;
21979;SDS011;11154;48.558;9.234;2022-11-24T05:47:16;9.45;;;2.03;;
21979;SDS011;11154;48.558;9.234;2022-11-24T05:49:18;7.80;;;1.73;;
21979;SDS011;11154;48.558;9.234;2022-11-24T05:51:20;10.05;;;2.35;;
21979;SDS011;11154;48.558;9.234;2022-11-24T05:53:21;7.82;;;1.63;;
21979;SDS011;11154;48.558;9.234;2022-11-24T05:55:24;8.18;;;1.67;;
21979;SDS011;11154;48.558;9.234;2022-11-24T05:57:26;6.25;;;1.80;;
21979;SDS011;11154;48.558;9.234;2022-11-24T05:59:29;8.15;;;2.25;;
21979;SDS011;11154;48.558;9.234;2022-11-24T06:01:31;11.98;;;4.97;;
21979;SDS011;11154;48.558;9.234;2022-11-24T06:03:32;5.68;;;1.90;;
21979;SDS011;11154;48.558;9.234;2022-11-24T06:05:34;3.92;;;1.60;;
21979;SDS011;11154;48.558;9.234;2022-11-24T06:07:36;4.00;;;1.42;;
21979;SDS011;11154;48.558;9.234;2022-11-24T06:09:38;4.07;;;1.35;;
21979;SDS011;11154;48.558;9.234;2022-11-24T06:11:42;6.97;;;1.85;;
21979;SDS011;11154;48.558;9.234;2022-11-24T06:13:43;4.65;;;1.70;;
21979;SDS011;11154;48.558;9.234;2022-11-24T06:15:48;8.85;;;2.13;;
21979;SDS011;11154;48.558;9.234;2022-11-24T06:17:53;5.80;;;1.70;;
21979;SDS011;11154;48.558;9.234;2022-11-24T06:19:55;11.07;;;2.10;;
21979;SDS011;11154;48.558;9.234;2022-11-24T06:21:57;7.90;;;2.13;;
21979;SDS011;11154;48.558;9.234;2022-11-24T06:23:59;10.18;;;1.90;;
21979;SDS011;11154;48.558;9.234;2022-11-24T06:26:01;9.10;;;1.77;;
21979;SDS011;11154;48.558;9.234;2022-11-24T06:28:03;8.32;;;1.90;;
21979;SDS011;11154;48.558;9.234;2022-11-24T06:30:06;8.82;;;2.20;;
21979;SDS011;11154;48.558;9.234;2022-11-24T06:32:09;7.63;;;1.83;;
21979;SDS011;11154;48.558;9.234;2022-11-24T06:34:11;7.68;;;2.40;;
21979;SDS011;11154;48.558;9.234;2022-11-24T06:36:13;8.20;;;2.90;;
21979;SDS011;11154;48.558;9.234;2022-11-24T06:38:15;14.05;;;2.53;;
21979;SDS011;11154;48.558;9.234;2022-11-24T06:40:17;8.38;;;2.65;;
21979;SDS011;11154;48.558;9.234;2022-11-24T06:42:19;9.05;;;2.10;;
21979;SDS011;11154;48.558;9.234;2022-11-24T06:44:20;6.47;;;2.50;;
21979;SDS011;11154;48.558;9.234;2022-11-24T06:46:22;7.18;;;2.55;;
21979;SDS011;11154;48.558;9.234;2022-11-24T06:48:26;7.10;;;2.55;;
21979;SDS011;11154;48.558;9.234;2022-11-24T06:50:28;10.10;;;4.13;;
21979;SDS011;11154;48.558;9.234;2022-11-24T06:52:30;8.43;;;3.20;;
21979;SDS011;11154;48.558;9.234;2022-11-24T06:54:31;5.43;;;2.22;;
21979;SDS011;11154;48.558;9.234;2022-11-24T06:56:33;7.47;;;2.83;;
21979;SDS011;11154;48.558;9.234;2022-11-24T06:58:39;10.68;;;2.97;;
21979;SDS011;11154;48.558;9.234;2022-11-24T07:00:41;9.88;;;2.55;;
21979;SDS011;11154;48.558;9.234;2022-11-24T07:02:42;4.70;;;1.90;;
21979;SDS011;11154;48.558;9.234;2022-11-24T07:04:45;8.50;;;2.03;;
21979;SDS011;11154;48.558;9.234;2022-11-24T07:06:47;11.75;;;2.35;;
21979;SDS011;11154;48.558;9.234;2022-11-24T07:08:48;7.22;;;2.08;;
21979;SDS011;11154;48.558;9.234;2022-11-24T07:10:51;7.03;;;2.08;;
21979;SDS011;11154;48.558;9.234;2022-11-24T07:12:52;7.72;;;2.10;;
21979;SDS011;11154;48.558;9.234;2022-11-24T07:14:54;9.82;;;2.20;;
21979;SDS011;11154;48.558;9.234;2022-11-24T07:16:55;7.60;;;2.35;;
21979;SDS011;11154;48.558;9.234;2022-11-24T07:18:57;12.95;;;4.68;;
21979;SDS011;11154;48.558;9.234;2022-11-24T07:21:03;19.10;;;5.78;;
21979;SDS011;11154;48.558;9.234;2022-11-24T07:23:05;51.03;;;19.20;;
21979;SDS011;11154;48.558;9.234;2022-11-24T07:25:07;35.63;;;16.35;;
21979;SDS011;11154;48.558;9.234;2022-11-24T07:27:09;35.08;;;20.60;;
21979;SDS011;11154;48.558;9.234;2022-11-24T07:29:10;15.55;;;7.75;;
21979;SDS011;11154;48.558;9.234;2022-11-24T07:31:13;12.60;;;5.28;;
21979;SDS011;11154;48.558;9.234;2022-11-24T07:33:16;10.35;;;3.45;;
21979;SDS011;11154;48.558;9.234;2022-11-24T07:35:20;8.75;;;3.47;;
21979;SDS011;11154;48.558;9.234;2022-11-24T07:37:24;8.63;;;2.67;;
21979;SDS011;11154;48.558;9.234;2022-11-24T07:39:28;11.73;;;2.63;;
21979;SDS011;11154;48.558;9.234;2022-11-24T07:41:29;8.10;;;2.03;;
21979;SDS011;11154;48.558;9.234;2022-11-24T07:43:31;12.68;;;2.72;;
21979;SDS011;11154;48.558;9.234;2022-11-24T07:45:34;7.25;;;2.13;;
21979;SDS011;11154;48.558;9.234;2022-11-24T07:47:37;9.88;;;2.83;;
21979;SDS011;11154;48.558;9.234;2022-11-24T07:49:40;9.15;;;3.33;;
21979;SDS011;11154;48.558;9.234;2022-11-24T07:51:42;13.68;;;5.32;;
21979;SDS011;11154;48.558;9.234;2022-11-24T07:53:46;12.05;;;4.35;;
21979;SDS011;11154;48.558;9.234;2022-11-24T07:55:51;11.18;;;3.10;;
21979;SDS011;11154;48.558;9.234;2022-11-24T07:57:57;10.00;;;3.20;;
21979;SDS011;11154;48.558;9.234;2022-11-24T07:59:59;12.50;;;6.85;;
21979;SDS011;11154;48.558;9.234;2022-11-24T08:02:01;8.63;;;4.43;;
21979;SDS011;11154;48.558;9.234;2022-11-24T08:04:02;8.23;;;3.22;;
21979;SDS011;11154;48.558;9.234;2022-11-24T08:06:04;9.05;;;3.55;;
21979;SDS011;11154;48.558;9.234;2022-11-24T08:08:06;9.07;;;2.63;;
21979;SDS011;11154;48.558;9.234;2022-11-24T08:10:09;7.35;;;2.30;;
21979;SDS011;11154;48.558;9.234;2022-11-24T08:12:11;7.32;;;2.20;;
21979;SDS011;11154;48.558;9.234;2022-11-24T08:14:12;11.30;;;2.25;;
21979;SDS011;11154;48.558;9.234;2022-11-24T08:16:14;8.60;;;2.40;;
21979;SDS011;11154;48.558;9.234;2022-11-24T08:18:20;7.78;;;2.17;;
21979;SDS011;11154;48.558;9.234;2022-11-24T08:20:23;10.40;;;2.25;;
21979;SDS011;11154;48.558;9.234;2022-11-24T08:22:25;9.95;;;2.63;;
21979;SDS011;11154;48.558;9.234;2022-11-24T08:24:26;7.00;;;2.38;;
21979;SDS011;11154;48.558;9.234;2022-11-24T08:26:31;7.28;;;2.28;;
21979;SDS011;11154;48.558;9.234;2022-11-24T08:28:33;8.70;;;2.42;;
21979;SDS011;11154;48.558;9.234;2022-11-24T08:30:35;9.90;;;2.53;;
21979;SDS011;11154;48.558;9.234;2022-11-24T08:32:37;7.18;;;2.40;;
21979;SDS011;11154;48.558;9.234;2022-11-24T08:34:39;10.63;;;2.95;;
21979;SDS011;11154;48.558;9.234;2022-11-24T08:36:41;11.32;;;2.55;;
21979;SDS011;11154;48.558;9.234;2022-11-24T08:38:43;7.97;;;2.80;;
21979;SDS011;11154;48.558;9.234;2022-11-24T08:40:45;8.77;;;2.75;;
21979;SDS011;11154;48.558;9.234;2022-11-24T08:42:48;7.97;;;2.50;;
21979;SDS011;11154;48.558;9.234;2022-11-24T08:44:50;12.23;;;5.28;;
21979;SDS011;11154;48.558;9.234;2022-11-24T08:46:52;38.72;;;20.65;;
21979;SDS011;11154;48.558;9.234;2022-11-24T08:48:54;19.50;;;10.77;;
21979;SDS011;11154;48.558;9.234;2022-11-24T08:50:55;12.88;;;3.83;;
21979;SDS011;11154;48.558;9.234;2022-11-24T08:52:59;10.30;;;2.95;;
21979;SDS011;11154;48.558;9.234;2022-11-24T08:55:01;6.53;;;2.58;;
21979;SDS011;11154;48.558;9.234;2022-11-24T08:57:02;5.95;;;2.08;;
21979;SDS011;11154;48.558;9.234;2022-11-24T08:59:05;9.02;;;2.17;;
21979;SDS011;11154;48.558;9.234;2022-11-24T09:01:07;8.23;;;1.98;;
21979;SDS011;11154;48.558;9.234;2022-11-24T09:03:12;6.18;;;1.77;;
21979;SDS011;11154;48.558;9.234;2022-11-24T09:05:14;6.85;;;1.88;;
21979;SDS011;11154;48.558;9.234;2022-11-24T09:07:16;5.88;;;2.22;;
21979;SDS011;11154;48.558;9.234;2022-11-24T09:09:17;4.75;;;2.08;;
21979;SDS011;11154;48.558;9.234;2022-11-24T09:11:19;8.73;;;2.20;;
21979;SDS011;11154;48.558;9.234;2022-11-24T09:13:21;6.43;;;1.90;;
21979;SDS011;11154;48.558;9.234;2022-11-24T09:15:24;11.68;;;3.38;;
21979;SDS011;11154;48.558;9.234;2022-11-24T09:17:26;7.63;;;2.30;;
21979;SDS011;11154;48.558;9.234;2022-11-24T09:19:28;7.13;;;2.20;;
21979;SDS011;11154;48.558;9.234;2022-11-24T09:21:30;4.65;;;1.77;;
21979;SDS011;11154;48.558;9.234;2022-11-24T09:23:33;6.03;;;2.22;;
21979;SDS011;11154;48.558;9.234;2022-11-24T09:25:35;11.00;;;2.13;;
21979;SDS011;11154;48.558;9.234;2022-11-24T09:27:36;7.53;;;2.50;;
21979;SDS011;11154;48.558;9.234;2022-11-24T09:29:38;30.98;;;25.70;;
21979;SDS011;11154;48.558;9.234;2022-11-24T09:31:41;24.92;;;21.58;;
21979;SDS011;11154;48.558;9.234;2022-11-24T09:33:42;9.05;;;3.92;;
21979;SDS011;11154;48.558;9.234;2022-11-24T09:35:44;5.35;;;1.75;;
21979;SDS011;11154;48.558;9.234;2022-11-24T09:37:49;5.80;;;2.38;;
21979;SDS011;11154;48.558;9.234;2022-11-24T09:39:51;8.38;;;3.78;;
21979;SDS011;11154;48.558;9.234;2022-11-24T09:41:56;6.05;;;2.50;;
21979;SDS011;11154;48.558;9.234;2022-11-24T09:44:09;12.88;;;2.30;;
21979;SDS011;11154;48.558;9.234;2022-11-24T09:46:26;6.68;;;2.63;;
21979;SDS011;11154;48.558;9.234;2022-11-24T09:48:34;4.07;;;1.73;;
21979;SDS011;11154;48.558;9.234;2022-11-24T09:50:39;4.57;;;1.60;;
21979;SDS011;11154;48.558;9.234;2022-11-24T09:52:45;5.85;;;1.75;;
21979;SDS011;11154;48.558;9.234;2022-11-24T09:54:52;4.50;;;1.40;;
21979;SDS011;11154;48.558;9.234;2022-11-24T09:57:00;5.35;;;2.13;;
21979;SDS011;11154;48.558;9.234;2022-11-24T09:59:05;5.57;;;2.75;;
21979;SDS011;11154;48.558;9.234;2022-11-24T10:01:14;4.65;;;1.30;;
21979;SDS011;11154;48.558;9.234;2022-11-24T10:03:19;4.72;;;1.40;;
21979;SDS011;11154;48.558;9.234;2022-11-24T10:05:28;5.35;;;1.60;;
21979;SDS011;11154;48.558;9.234;2022-11-24T10:07:36;4.28;;;1.50;;
21979;SDS011;11154;48.558;9.234;2022-11-24T10:09:47;5.95;;;1.80;;
21979;SDS011;11154;48.558;9.234;2022-11-24T10:11:59;4.65;;;1.50;;
21979;SDS011;11154;48.558;9.234;2022-11-24T10:14:19;3.85;;;1.70;;
21979;SDS011;11154;48.558;9.234;2022-11-24T10:16:35;5.05;;;1.52;;
21979;SDS011;11154;48.558;9.234;2022-11-24T10:18:52;4.50;;;1.15;;
21979;SDS011;11154;48.558;9.234;2022-11-24T10:21:03;2.53;;;1.30;;
21979;SDS011;11154;48.558;9.234;2022-11-24T10:23:23;6.20;;;1.38;;
21979;SDS011;11154;48.558;9.234;2022-11-24T10:25:35;4.78;;;2.10;;
21979;SDS011;11154;48.558;9.234;2022-11-24T10:27:43;1.05;;;0.80;;
21979;SDS011;11154;48.558;9.234;2022-11-24T10:29:50;3.03;;;0.90;;
21979;SDS011;11154;48.558;9.234;2022-11-24T10:31:53;1.90;;;1.00;;
21979;SDS011;11154;48.558;9.234;2022-11-24T10:33:56;1.58;;;1.00;;
21979;SDS011;11154;48.558;9.234;2022-11-24T10:36:03;2.28;;;1.20;;
21979;SDS011;11154;48.558;9.234;2022-11-24T10:38:15;2.60;;;0.90;;
21979;SDS011;11154;48.558;9.234;2022-11-24T10:40:32;4.80;;;1.35;;
21979;SDS011;11154;48.558;9.234;2022-11-24T10:42:37;2.40;;;1.00;;
21979;SDS011;11154;48.558;9.234;2022-11-24T10:44:39;2.88;;;1.00;;
21979;SDS011;11154;48.558;9.234;2022-11-24T10:46:42;4.80;;;2.97;;
21979;SDS011;11154;48.558;9.234;2022-11-24T10:48:44;2.35;;;1.30;;
21979;SDS011;11154;48.558;9.234;2022-11-24T10:50:50;6.13;;;2.40;;
21979;SDS011;11154;48.558;9.234;2022-11-24T10:52:58;2.17;;;1.23;;
21979;SDS011;11154;48.558;9.234;2022-11-24T10:55:06;3.33;;;1.27;;
21979;SDS011;11154;48.558;9.234;2022-11-24T10:57:08;1.17;;;0.60;;
21979;SDS011;11154;48.558;9.234;2022-11-24T10:59:30;3.20;;;0.80;;
21979;SDS011;11154;48.558;9.234;2022-11-24T11:01:34;4.18;;;1.42;;
21979;SDS011;11154;48.558;9.234;2022-11-24T11:03:42;1.65;;;0.80;;
21979;SDS011;11154;48.558;9.234;2022-11-24T11:05:47;2.25;;;1.30;;
21979;SDS011;11154;48.558;9.234;2022-11-24T11:07:58;2.58;;;1.23;;
21979;SDS011;11154;48.558;9.234;2022-11-24T11:10:19;2.25;;;1.58;;
21979;SDS011;11154;48.558;9.234;2022-11-24T11:12:22;4.03;;;1.15;;
21979;SDS011;11154;48.558;9.234;2022-11-24T11:14:29;5.68;;;2.60;;
21979;SDS011;11154;48.558;9.234;2022-11-24T11:16:35;2.50;;;2.10;;
21979;SDS011;11154;48.558;9.234;2022-11-24T11:18:38;4.32;;;2.90;;
21979;SDS011;11154;48.558;9.234;2022-11-24T11:20:40;3.70;;;2.80;;
21979;SDS011;11154;48.558;9.234;2022-11-24T11:22:50;5.55;;;1.98;;
21979;SDS011;11154;48.558;9.234;2022-11-24T11:25:02;2.58;;;1.20;;
21979;SDS011;11154;48.558;9.234;2022-11-24T11:27:17;2.47;;;1.23;;
21979;SDS011;11154;48.558;9.234;2022-11-24T11:29:20;1.30;;;0.80;;
21979;SDS011;11154;48.558;9.234;2022-11-24T11:31:25;3.25;;;0.98;;
21979;SDS011;11154;48.558;9.234;2022-11-24T11:33:29;2.22;;;0.63;;
21979;SDS011;11154;48.558;9.234;2022-11-24T11:35:32;3.75;;;1.40;;
21979;SDS011;11154;48.558;9.234;2022-11-24T11:37:34;2.85;;;1.20;;
21979;SDS011;11154;48.558;9.234;2022-11-24T11:39:36;3.85;;;1.65;;
21979;SDS011;11154;48.558;9.234;2022-11-24T11:41:43;4.65;;;1.15;;
21979;SDS011;11154;48.558;9.234;2022-11-24T11:43:49;2.28;;;1.08;;
21979;SDS011;11154;48.558;9.234;2022-11-24T11:45:58;2.75;;;0.85;;
21979;SDS011;11154;48.558;9.234;2022-11-24T11:48:08;3.55;;;1.20;;
21979;SDS011;11154;48.558;9.234;2022-11-24T11:50:23;4.72;;;2.00;;
21979;SDS011;11154;48.558;9.234;2022-11-24T11:52:34;5.03;;;1.90;;
21979;SDS011;11154;48.558;9.234;2022-11-24T11:54:56;6.05;;;1.90;;
21979;SDS011;11154;48.558;9.234;2022-11-24T11:57:19;4.30;;;2.10;;
21979;SDS011;11154;48.558;9.234;2022-11-24T11:59:37;2.95;;;1.25;;
21979;SDS011;11154;48.558;9.234;2022-11-24T12:01:53;3.28;;;1.20;;
21979;SDS011;11154;48.558;9.234;2022-11-24T12:04:14;5.72;;;1.42;;
21979;SDS011;11154;48.558;9.234;2022-11-24T12:06:24;6.95;;;1.40;;
21979;SDS011;11154;48.558;9.234;2022-11-24T12:08:39;6.05;;;1.55;;
21979;SDS011;11154;48.558;9.234;2022-11-24T12:10:50;3.90;;;1.30;;
21979;SDS011;11154;48.558;9.234;2022-11-24T12:13:05;2.78;;;1.02;;
21979;SDS011;11154;48.558;9.234;2022-11-24T12:15:19;3.90;;;1.00;;
21979;SDS011;11154;48.558;9.234;2022-11-24T12:17:30;4.03;;;1.02;;
21979;SDS011;11154;48.558;9.234;2022-11-24T12:19:50;6.13;;;1.50;;
21979;SDS011;11154;48.558;9.234;2022-11-24T12:22:05;3.55;;;1.38;;
21979;SDS011;11154;48.558;9.234;2022-11-24T12:24:13;3.15;;;1.17;;
21979;SDS011;11154;48.558;9.234;2022-11-24T12:28:31;4.28;;;1.27;;